Time;durP1;ratioP1;P1;durP2;ratioP2;P2;SDS_P1;SDS_P2;PMS_P1;PMS_P2;Temp;Humidity;BMP_temperature;BMP_pressure;BME280_temperature;BME280_humidity;BME280_pressure;Samples;Min_cycle;Max_cycle;Signal;HPM_P1;HPM_P2
2023/03/21 00:00:24;;;;;;;33.67;15.40;;;9.50;73.00;;;;;;5052758;28;20026;-65
2023/03/21 00:02:50;;;;;;;34.92;15.05;;;9.60;75.30;;;;;;5052924;28;20083;-63
2023/03/21 00:05:16;;;;;;;29.20;14.30;;;9.50;78.60;;;;;;5052760;28;20025;-63
2023/03/21 00:07:41;;;;;;;30.80;14.23;;;9.60;79.00;;;;;;5052776;28;20086;-63
2023/03/21 00:10:08;;;;;;;26.05;13.32;;;9.50;76.70;;;;;;5052900;28;20098;-63
2023/03/21 00:12:36;;;;;;;26.10;14.00;;;9.50;78.50;;;;;;5052939;28;20035;-63
2023/03/21 00:15:04;;;;;;;32.47;14.18;;;9.50;77.10;;;;;;5052780;28;20033;-63
2023/03/21 00:17:31;;;;;;;33.80;14.23;;;9.60;74.70;;;;;;5052989;28;20040;-63
2023/03/21 00:19:59;;;;;;;25.15;13.50;;;9.50;75.50;;;;;;5052803;28;20400;-63
2023/03/21 00:22:26;;;;;;;33.70;13.90;;;9.50;75.40;;;;;;5052683;28;20108;-63
2023/03/21 00:24:52;;;;;;;27.00;13.55;;;9.50;74.60;;;;;;5054869;28;20036;-63
2023/03/21 00:27:19;;;;;;;31.50;14.10;;;9.50;76.50;;;;;;5056653;28;20025;-63
2023/03/21 00:29:47;;;;;;;41.95;14.82;;;9.50;74.10;;;;;;5056586;28;20025;-63
2023/03/21 00:32:13;;;;;;;27.35;13.65;;;9.60;68.70;;;;;;5056583;28;20122;-63
2023/03/21 00:34:39;;;;;;;25.13;13.68;;;9.60;62.10;;;;;;5056285;28;20471;-63
2023/03/21 00:37:06;;;;;;;32.25;14.55;;;9.60;64.50;;;;;;5055988;28;20060;-63
2023/03/21 00:39:31;;;;;;;22.67;12.48;;;9.60;62.10;;;;;;5056183;28;20052;-63
2023/03/21 00:41:57;;;;;;;31.67;14.15;;;9.60;63.60;;;;;;5055070;28;20102;-64
2023/03/21 00:44:24;;;;;;;33.00;13.50;;;9.60;64.80;;;;;;5056274;28;20021;-63
2023/03/21 00:46:50;;;;;;;29.80;14.38;;;9.50;66.60;;;;;;5056187;28;20066;-63
2023/03/21 00:49:15;;;;;;;29.17;13.77;;;9.60;62.90;;;;;;5055951;28;20032;-63
2023/03/21 00:51:42;;;;;;;30.73;14.52;;;9.60;62.60;;;;;;5056117;28;20024;-65
2023/03/21 00:54:11;;;;;;;36.53;15.55;;;9.60;62.50;;;;;;5055846;28;20032;-63
2023/03/21 00:56:37;;;;;;;32.65;15.15;;;9.70;59.70;;;;;;5056112;28;20505;-63
2023/03/21 00:59:03;;;;;;;27.17;14.65;;;9.70;56.90;;;;;;5055817;28;20068;-63
2023/03/21 01:01:30;;;;;;;33.08;14.90;;;9.70;58.90;;;;;;5054804;28;20437;-63
2023/03/21 01:04:04;;;;;;;31.58;14.32;;;9.60;60.20;;;;;;5055831;28;20108;-63
2023/03/21 01:06:31;;;;;;;37.58;15.18;;;9.70;58.40;;;;;;5055681;28;20052;-63
2023/03/21 01:08:57;;;;;;;34.67;14.90;;;9.60;60.80;;;;;;5055677;28;20028;-63
2023/03/21 01:11:26;;;;;;;31.08;14.05;;;9.60;61.10;;;;;;5054472;28;20029;-63
2023/03/21 01:13:52;;;;;;;32.15;14.57;;;9.60;60.50;;;;;;5055754;28;20029;-63
2023/03/21 01:16:18;;;;;;;29.50;13.70;;;9.60;59.10;;;;;;5054335;28;20029;-63
2023/03/21 01:18:43;;;;;;;31.73;14.32;;;9.70;54.70;;;;;;5055363;28;20032;-63
2023/03/21 01:21:13;;;;;;;31.60;14.23;;;9.70;52.00;;;;;;5055435;28;20021;-64
2023/03/21 01:23:40;;;;;;;33.85;13.55;;;9.70;48.40;;;;;;5055329;28;20474;-63
2023/03/21 01:26:06;;;;;;;25.83;13.63;;;9.70;48.10;;;;;;5055363;28;20092;-63
2023/03/21 01:28:33;;;;;;;28.05;13.73;;;9.70;47.20;;;;;;5055512;28;20548;-63
2023/03/21 01:31:01;;;;;;;33.63;14.45;;;9.70;46.80;;;;;;5054303;28;20029;-63
2023/03/21 01:33:27;;;;;;;29.67;13.30;;;9.70;45.90;;;;;;5055196;28;20143;-63
2023/03/21 01:35:53;;;;;;;27.58;13.38;;;9.70;42.50;;;;;;5055084;28;20478;-63
2023/03/21 01:38:19;;;;;;;32.55;13.57;;;9.70;42.20;;;;;;5054728;28;20411;-63
2023/03/21 01:40:47;;;;;;;27.83;13.30;;;9.70;43.40;;;;;;5055020;28;20025;-63
2023/03/21 01:43:22;;;;;;;31.88;14.55;;;9.70;41.60;;;;;;5054938;28;20020;-63
2023/03/21 01:46:11;;;;;;;30.35;13.75;;;9.70;39.30;;;;;;5053981;28;20025;-63
2023/03/21 01:48:40;;;;;;;26.52;13.05;;;9.70;35.60;;;;;;5054901;28;20032;-64
2023/03/21 01:51:08;;;;;;;26.60;12.32;;;9.80;31.40;;;;;;5054815;28;20124;-63
2023/03/21 01:53:36;;;;;;;27.63;13.75;;;9.80;31.20;;;;;;5053559;28;20036;-63
2023/03/21 01:56:09;;;;;;;26.80;12.95;;;9.80;31.90;;;;;;5055001;28;20055;-63
2023/03/21 01:58:36;;;;;;;34.72;13.75;;;9.70;33.20;;;;;;5054736;28;20108;-63
2023/03/21 02:01:02;;;;;;;28.27;13.32;;;9.70;33.90;;;;;;5054673;28;20025;-64
2023/03/21 02:03:36;;;;;;;28.90;12.45;;;9.70;34.30;;;;;;5054673;28;20079;-64
2023/03/21 02:06:07;;;;;;;28.98;13.30;;;9.70;30.80;;;;;;5054571;28;20056;-63
2023/03/21 02:08:34;;;;;;;24.77;12.45;;;9.70;32.70;;;;;;5054605;28;20029;-63
2023/03/21 02:10:59;;;;;;;30.08;12.45;;;9.70;32.00;;;;;;5054391;28;20033;-63
2023/03/21 02:13:25;;;;;;;30.20;12.50;;;9.70;28.80;;;;;;5054684;28;20037;-64
2023/03/21 02:16:14;;;;;;;28.80;12.10;;;9.70;27.40;;;;;;5054515;28;20078;-63
2023/03/21 02:18:55;;;;;;;24.73;12.15;;;9.70;28.50;;;;;;5054308;28;20025;-63
2023/03/21 02:21:53;;;;;;;27.17;12.35;;;9.70;28.60;;;;;;5054390;28;20485;-63
2023/03/21 02:24:47;;;;;;;26.98;11.82;;;9.70;27.50;;;;;;5054261;28;20037;-63
2023/03/21 02:27:20;;;;;;;30.77;11.90;;;9.70;28.90;;;;;;5054362;28;20029;-63
2023/03/21 02:30:18;;;;;;;27.33;12.05;;;9.70;25.20;;;;;;5054363;28;20101;-63
2023/03/21 02:33:07;;;;;;;26.05;11.77;;;9.70;23.00;;;;;;5054021;28;20447;-63
2023/03/21 02:36:03;;;;;;;27.27;11.25;;;9.70;21.60;;;;;;5053922;28;20031;-63
2023/03/21 02:38:40;;;;;;;31.20;11.77;;;9.80;19.30;;;;;;5053638;28;20099;-63
2023/03/21 02:41:31;;;;;;;25.98;11.43;;;9.80;20.00;;;;;;5054102;28;20025;-63
2023/03/21 02:44:07;;;;;;;24.67;11.60;;;9.80;22.30;;;;;;5053960;28;20111;-63
2023/03/21 02:47:13;;;;;;;26.45;11.25;;;9.80;16.50;;;;;;5053581;28;20095;-63
2023/03/21 02:49:55;;;;;;;20.80;10.80;;;9.80;11.60;;;;;;5053637;28;20112;-64
2023/03/21 02:52:25;;;;;;;22.90;12.40;;;9.80;12.90;;;;;;5053794;28;20029;-63
2023/03/21 02:54:52;;;;;;;23.52;11.93;;;9.80;14.60;;;;;;5053808;28;20025;-63
2023/03/21 02:57:18;;;;;;;24.92;12.00;;;9.80;16.40;;;;;;5053349;28;20525;-63
2023/03/21 02:59:48;;;;;;;30.85;12.35;;;9.80;17.40;;;;;;5053615;28;20471;-63
2023/03/21 03:02:16;;;;;;;32.45;12.52;;;9.90;13.80;;;;;;5053753;28;20429;-63
2023/03/21 03:04:41;;;;;;;25.23;11.43;;;9.90;15.10;;;;;;5052579;28;20056;-63
2023/03/21 03:07:32;;;;;;;33.92;11.65;;;9.90;12.70;;;;;;5053287;28;20063;-63
2023/03/21 03:10:13;;;;;;;28.88;12.32;;;9.90;12.00;;;;;;5053485;28;20048;-63
2023/03/21 03:15:58;;;;;;;21.55;11.50;;;9.80;17.20;;;;;;5090842;28;20878;-63
2023/03/21 03:21:29;;;;;;;28.33;11.75;;;9.80;15.00;;;;;;5090910;28;20378;-63
2023/03/21 03:24:00;;;;;;;29.92;12.88;;;9.80;20.20;;;;;;5090767;28;20085;-63
2023/03/21 03:26:37;;;;;;;25.00;12.52;;;9.80;21.40;;;;;;5090800;28;20070;-64
2023/03/21 03:29:07;;;;;;;30.67;12.63;;;9.90;21.50;;;;;;5090676;28;20453;-63
2023/03/21 03:31:40;;;;;;;28.00;14.02;;;9.90;22.70;;;;;;5089480;28;20020;-63
2023/03/21 03:34:10;;;;;;;27.98;14.35;;;9.90;23.30;;;;;;5090793;28;20028;-63
2023/03/21 03:36:40;;;;;;;29.50;15.20;;;9.90;25.50;;;;;;5090555;28;20021;-63
2023/03/21 03:39:09;;;;;;;33.15;15.73;;;9.90;32.50;;;;;;5090391;28;20108;-62
2023/03/21 03:41:45;;;;;;;30.55;15.88;;;9.90;39.90;;;;;;5089421;28;20482;-63
2023/03/21 03:44:12;;;;;;;33.20;15.98;;;9.80;43.20;;;;;;5089146;28;20024;-62
2023/03/21 03:47:02;;;;;;;38.42;16.70;;;9.80;45.60;;;;;;5090578;28;20024;-63
2023/03/21 03:49:35;;;;;;;39.17;16.45;;;9.80;46.80;;;;;;5090105;28;20028;-63
2023/03/21 03:52:10;;;;;;;34.53;15.85;;;9.80;44.80;;;;;;5090314;28;20417;-63
2023/03/21 03:54:39;;;;;;;32.13;15.10;;;9.80;42.90;;;;;;5090167;28;20028;-63
2023/03/21 03:57:06;;;;;;;34.83;16.10;;;9.80;43.50;;;;;;5089006;28;20040;-62
2023/03/21 03:59:35;;;;;;;33.22;16.13;;;9.80;43.20;;;;;;5089905;28;20063;-63
2023/03/21 04:02:02;;;;;;;38.67;16.08;;;9.80;39.60;;;;;;5090056;28;20496;-63
2023/03/21 04:04:27;;;;;;;33.42;16.33;;;9.80;39.80;;;;;;5090120;28;20044;-64
2023/03/21 04:06:53;;;;;;;35.83;16.10;;;9.80;40.90;;;;;;5088887;28;20113;-63
2023/03/21 04:09:19;;;;;;;33.10;16.23;;;9.80;40.00;;;;;;5088481;28;20024;-62
2023/03/21 04:11:45;;;;;;;31.75;15.85;;;9.80;41.50;;;;;;5089816;28;20028;-63
2023/03/21 04:14:11;;;;;;;30.20;15.93;;;9.80;41.20;;;;;;5089956;28;20123;-63
2023/03/21 04:16:36;;;;;;;36.85;17.30;;;9.80;38.70;;;;;;5089802;28;20107;-63
2023/03/21 04:19:02;;;;;;;32.75;16.52;;;9.70;42.20;;;;;;5089489;28;20100;-63
2023/03/21 04:21:28;;;;;;;38.20;16.80;;;9.70;43.00;;;;;;5089759;28;20048;-63
2023/03/21 04:23:54;;;;;;;35.92;17.05;;;9.80;38.90;;;;;;5089584;28;20021;-63
2023/03/21 04:26:21;;;;;;;32.10;16.10;;;9.80;37.50;;;;;;5088647;28;20031;-62
2023/03/21 04:28:48;;;;;;;28.80;14.45;;;9.80;36.70;;;;;;5089501;28;20046;-63
2023/03/21 04:31:14;;;;;;;30.83;15.82;;;9.80;38.00;;;;;;5083843;28;20520;-62
2023/03/21 04:33:40;;;;;;;35.83;15.73;;;9.70;37.30;;;;;;5075970;28;20029;-63
2023/03/21 04:36:08;;;;;;;30.85;16.00;;;9.70;40.80;;;;;;5075870;28;20077;-63
2023/03/21 04:38:34;;;;;;;33.45;15.25;;;9.60;42.80;;;;;;5074802;28;20040;-63
2023/03/21 04:41:01;;;;;;;33.28;16.20;;;9.50;49.00;;;;;;5074627;28;20458;-63
2023/03/21 04:43:27;;;;;;;33.83;16.38;;;9.50;48.00;;;;;;5075861;28;20475;-62
2023/03/21 04:45:53;;;;;;;33.58;16.90;;;9.60;49.00;;;;;;5075875;28;20028;-63
2023/03/21 04:48:23;;;;;;;34.30;17.33;;;9.50;53.40;;;;;;5075587;28;20028;-63
2023/03/21 04:50:49;;;;;;;34.30;16.23;;;9.60;53.50;;;;;;5075616;28;20529;-63
2023/03/21 04:53:14;;;;;;;31.90;16.27;;;9.50;54.00;;;;;;5075784;28;20158;-63
2023/03/21 04:55:40;;;;;;;33.38;16.67;;;9.50;55.00;;;;;;5075555;28;20529;-63
2023/03/21 04:58:06;;;;;;;30.10;16.08;;;9.50;55.40;;;;;;5075475;28;20121;-63
2023/03/21 05:00:36;;;;;;;32.55;16.55;;;9.60;55.90;;;;;;5074436;28;20119;-63
2023/03/21 05:03:03;;;;;;;29.73;15.57;;;9.50;55.50;;;;;;5075395;28;20138;-62
2023/03/21 05:05:30;;;;;;;35.35;17.52;;;9.60;55.20;;;;;;5075248;28;20025;-63
2023/03/21 05:07:56;;;;;;;32.10;17.13;;;9.60;54.10;;;;;;5075472;28;20161;-63
2023/03/21 05:10:22;;;;;;;34.25;16.95;;;9.60;55.00;;;;;;5074051;28;20494;-62
2023/03/21 05:12:47;;;;;;;31.83;16.38;;;9.50;58.00;;;;;;5075274;28;20538;-63
2023/03/21 05:15:13;;;;;;;37.72;16.27;;;9.50;59.20;;;;;;5075182;28;20028;-63
2023/03/21 05:17:41;;;;;;;39.25;16.45;;;9.50;59.20;;;;;;5075145;28;20036;-63
2023/03/21 05:20:10;;;;;;;36.22;16.67;;;9.50;59.40;;;;;;5074891;28;20410;-63
2023/03/21 05:22:39;;;;;;;36.22;16.65;;;9.50;58.90;;;;;;5075190;28;20055;-63
2023/03/21 05:25:07;;;;;;;33.83;15.57;;;9.50;59.50;;;;;;5075163;28;20016;-62
2023/03/21 05:27:33;;;;;;;32.90;15.75;;;9.50;60.70;;;;;;5075097;28;20056;-63
2023/03/21 05:30:01;;;;;;;34.03;15.98;;;9.50;60.00;;;;;;5074001;28;20029;-63
2023/03/21 05:32:26;;;;;;;28.52;15.48;;;9.50;60.30;;;;;;5074873;28;20394;-62
2023/03/21 05:34:52;;;;;;;35.35;16.75;;;9.50;62.50;;;;;;5075003;28;20078;-63
2023/03/21 05:37:17;;;;;;;33.83;16.73;;;9.50;62.80;;;;;;5074624;28;20623;-62
2023/03/21 05:39:43;;;;;;;35.45;18.83;;;9.50;62.40;;;;;;5074621;28;20055;-63
2023/03/21 05:42:08;;;;;;;40.13;20.33;;;9.50;61.90;;;;;;5074241;28;20409;-63
2023/03/21 05:44:34;;;;;;;35.25;18.60;;;9.50;59.30;;;;;;5073904;28;20375;-63
2023/03/21 05:46:59;;;;;;;36.35;19.95;;;9.60;59.20;;;;;;5074630;28;20021;-64
2023/03/21 05:49:25;;;;;;;35.33;19.38;;;9.50;58.50;;;;;;5074629;28;20440;-63
2023/03/21 05:51:51;;;;;;;39.05;20.30;;;9.60;60.70;;;;;;5074644;28;20028;-63
2023/03/21 05:54:17;;;;;;;37.15;18.73;;;9.60;62.00;;;;;;5074382;28;20051;-63
2023/03/21 05:56:42;;;;;;;38.40;19.35;;;9.60;60.80;;;;;;5074299;28;20033;-64
2023/03/21 05:59:08;;;;;;;42.78;21.15;;;9.60;62.10;;;;;;5074225;28;20063;-63
2023/03/21 06:01:33;;;;;;;44.60;21.83;;;9.60;57.50;;;;;;5074492;28;20048;-63
2023/03/21 06:03:59;;;;;;;55.67;23.55;;;9.70;56.50;;;;;;5074501;28;20036;-63
2023/03/21 06:06:25;;;;;;;46.10;21.85;;;9.60;56.10;;;;;;5074107;28;20025;-63
2023/03/21 06:08:50;;;;;;;48.17;21.80;;;9.70;54.10;;;;;;5074297;28;20040;-63
2023/03/21 06:11:24;;;;;;;38.17;18.77;;;9.70;52.30;;;;;;5073813;28;20035;-63
2023/03/21 06:13:50;;;;;;;30.33;16.27;;;9.70;47.90;;;;;;5073889;28;20035;-63
2023/03/21 06:16:16;;;;;;;38.95;16.55;;;9.80;43.90;;;;;;5073933;28;20033;-63
2023/03/21 06:18:41;;;;;;;36.45;16.70;;;9.80;42.20;;;;;;5073988;28;20394;-63
2023/03/21 06:21:07;;;;;;;32.78;15.50;;;9.90;38.70;;;;;;5053561;28;20407;-63
2023/03/21 06:23:32;;;;;;;29.55;16.20;;;9.90;40.30;;;;;;5052741;28;20036;-63
2023/03/21 06:25:58;;;;;;;31.80;14.93;;;9.90;38.00;;;;;;5053793;28;20032;-63
2023/03/21 06:28:23;;;;;;;31.45;15.50;;;10.00;35.00;;;;;;5053631;28;20031;-63
2023/03/21 06:30:49;;;;;;;29.02;15.10;;;9.90;31.20;;;;;;5053875;28;20029;-63
2023/03/21 06:33:14;;;;;;;39.35;15.80;;;10.00;35.50;;;;;;5053645;28;20070;-63
2023/03/21 06:35:40;;;;;;;27.60;14.27;;;9.90;46.00;;;;;;5053689;28;20028;-63
2023/03/21 06:38:07;;;;;;;34.65;16.98;;;9.90;50.80;;;;;;5053648;28;20029;-63
2023/03/21 06:40:32;;;;;;;35.40;16.17;;;9.80;55.40;;;;;;5053670;28;20111;-63
2023/03/21 06:42:58;;;;;;;32.45;15.57;;;9.80;68.10;;;;;;5053413;28;20108;-63
2023/03/21 06:45:24;;;;;;;31.92;15.10;;;9.80;70.30;;;;;;5053451;28;20029;-63
2023/03/21 06:47:50;;;;;;;34.88;15.73;;;9.80;75.40;;;;;;5053382;28;20052;-63
2023/03/21 06:50:15;;;;;;;32.58;15.80;;;9.80;73.20;;;;;;5053566;28;20052;-64
2023/03/21 06:52:41;;;;;;;28.33;14.45;;;9.80;77.30;;;;;;5053313;28;20029;-64
2023/03/21 06:55:08;;;;;;;33.65;15.52;;;9.80;76.10;;;;;;5053017;28;20082;-63
2023/03/21 06:57:33;;;;;;;35.13;15.25;;;9.80;84.80;;;;;;5053024;28;20049;-63
2023/03/21 06:59:59;;;;;;;34.38;16.13;;;9.80;84.90;;;;;;5053301;28;20079;-63
2023/03/21 07:02:24;;;;;;;36.40;16.05;;;9.90;82.40;;;;;;5053390;28;20475;-63
2023/03/21 07:04:50;;;;;;;38.92;16.20;;;9.90;87.50;;;;;;5053102;28;20033;-63
2023/03/21 07:07:15;;;;;;;43.10;17.58;;;9.90;90.90;;;;;;5053305;28;20032;-63
2023/03/21 07:09:41;;;;;;;34.05;16.95;;;9.90;88.70;;;;;;5053316;28;20056;-64
2023/03/21 07:12:07;;;;;;;37.58;18.20;;;10.00;92.60;;;;;;5052979;28;20029;-63
2023/03/21 07:14:33;;;;;;;39.50;17.63;;;10.00;95.60;;;;;;5053247;28;20137;-63
2023/03/21 07:16:59;;;;;;;36.10;17.38;;;10.10;88.50;;;;;;5053359;28;20037;-63
2023/03/21 07:19:25;;;;;;;43.17;17.02;;;10.20;91.60;;;;;;5053019;28;20051;-63
2023/03/21 07:21:51;;;;;;;35.42;15.65;;;10.10;90.80;;;;;;5052891;28;20036;-63
2023/03/21 07:24:17;;;;;;;34.63;16.48;;;10.00;94.00;;;;;;5053131;28;20021;-63
2023/03/21 07:26:42;;;;;;;39.33;17.10;;;10.00;98.90;;;;;;5053097;28;20035;-63
2023/03/21 07:29:08;;;;;;;36.92;17.15;;;9.90;99.90;;;;;;5053147;28;20421;-63
2023/03/21 07:31:34;;;;;;;43.88;18.98;;;9.80;99.90;;;;;;5052911;28;20021;-64
2023/03/21 07:34:00;;;;;;;37.25;17.27;;;9.80;99.90;;;;;;5053295;28;20434;-63
2023/03/21 07:36:25;;;;;;;35.72;17.50;;;9.70;99.90;;;;;;5052969;28;20079;-63
2023/03/21 07:38:51;;;;;;;46.70;18.95;;;9.70;99.90;;;;;;5053069;28;20022;-63
2023/03/21 07:41:16;;;;;;;36.97;17.88;;;9.60;99.90;;;;;;5052697;28;20108;-64
2023/03/21 07:43:42;;;;;;;41.63;17.15;;;9.60;99.90;;;;;;5052641;28;20021;-63
2023/03/21 07:46:08;;;;;;;34.22;17.85;;;9.60;99.90;;;;;;5052796;28;20025;-64
2023/03/21 07:48:33;;;;;;;39.70;17.65;;;9.60;99.90;;;;;;5051672;28;20031;-64
2023/03/21 07:51:01;;;;;;;39.45;18.23;;;9.50;99.90;;;;;;5052758;28;20104;-64
2023/03/21 07:53:26;;;;;;;39.80;17.38;;;9.60;99.90;;;;;;5052693;28;20040;-64
2023/03/21 07:55:55;;;;;;;38.95;17.42;;;9.60;99.90;;;;;;5052535;28;20033;-64
2023/03/21 07:58:22;;;;;;;36.30;17.15;;;9.60;99.90;;;;;;5052201;28;20522;-66
2023/03/21 08:00:48;;;;;;;32.78;16.05;;;9.60;99.90;;;;;;5052485;28;20032;-64
2023/03/21 08:03:13;;;;;;;37.63;17.33;;;9.60;99.90;;;;;;5052538;28;20491;-64
2023/03/21 08:05:39;;;;;;;41.88;19.52;;;9.70;99.90;;;;;;5052774;28;20025;-64
2023/03/21 08:08:06;;;;;;;38.90;18.85;;;9.70;99.90;;;;;;5056425;28;20021;-64
2023/03/21 08:10:32;;;;;;;41.15;19.67;;;9.80;99.90;;;;;;5056336;28;20105;-65
2023/03/21 08:12:58;;;;;;;43.22;20.40;;;9.80;99.90;;;;;;5056488;28;20025;-64
2023/03/21 08:15:24;;;;;;;38.25;19.13;;;9.80;99.90;;;;;;5056193;28;20028;-64
2023/03/21 08:17:49;;;;;;;35.95;19.75;;;9.90;99.90;;;;;;5055853;28;20044;-64
2023/03/21 08:20:20;;;;;;;39.53;19.77;;;9.90;99.90;;;;;;5055791;28;20091;-64
2023/03/21 08:22:46;;;;;;;46.08;20.23;;;9.90;99.90;;;;;;5055166;28;20082;-64
2023/03/21 08:25:13;;;;;;;44.28;20.60;;;10.00;99.90;;;;;;5056236;28;20483;-64
2023/03/21 08:27:40;;;;;;;40.17;20.38;;;10.00;99.90;;;;;;5055747;28;20081;-64
2023/03/21 08:30:07;;;;;;;45.05;19.40;;;9.90;99.90;;;;;;5054832;28;20495;-64
2023/03/21 08:32:33;;;;;;;42.63;18.23;;;9.90;99.90;;;;;;5056206;28;20475;-64
2023/03/21 08:35:01;;;;;;;39.35;18.58;;;9.90;99.90;;;;;;5055890;28;20036;-64
2023/03/21 08:37:27;;;;;;;44.40;18.50;;;9.90;99.90;;;;;;5056024;28;20037;-64
2023/03/21 08:39:53;;;;;;;31.75;16.75;;;9.90;99.90;;;;;;5054442;28;20442;-64
2023/03/21 08:42:20;;;;;;;35.10;16.50;;;9.90;99.90;;;;;;5055585;28;20057;-64
2023/03/21 08:44:46;;;;;;;30.15;16.40;;;9.90;99.90;;;;;;5055709;28;20532;-64
2023/03/21 08:47:12;;;;;;;35.10;16.75;;;10.00;99.90;;;;;;5055709;28;20021;-64
2023/03/21 08:49:38;;;;;;;39.90;17.77;;;10.00;99.90;;;;;;5055814;28;20029;-65
2023/03/21 08:52:05;;;;;;;39.90;17.92;;;9.90;99.90;;;;;;5055775;28;20084;-64
2023/03/21 08:54:31;;;;;;;38.33;17.58;;;10.00;99.90;;;;;;5054251;28;20362;-63
2023/03/21 08:56:56;;;;;;;36.72;17.73;;;10.00;99.90;;;;;;5055638;28;20039;-64
2023/03/21 08:59:22;;;;;;;33.78;16.33;;;10.00;99.90;;;;;;5055185;28;20450;-64
2023/03/21 09:01:47;;;;;;;39.45;18.08;;;10.00;99.90;;;;;;5054132;28;20112;-63
2023/03/21 09:04:13;;;;;;;35.67;17.90;;;10.10;99.90;;;;;;5055387;28;20029;-64
2023/03/21 09:06:44;;;;;;;37.22;17.08;;;10.10;99.90;;;;;;5055292;28;20151;-64
2023/03/21 09:09:10;;;;;;;34.17;16.50;;;10.10;99.90;;;;;;5054088;28;20025;-64
2023/03/21 09:11:35;;;;;;;36.95;14.20;;;10.20;99.90;;;;;;5055337;28;20025;-64
2023/03/21 09:14:01;;;;;;;36.53;15.32;;;10.20;99.90;;;;;;5055038;28;20504;-64
2023/03/21 09:16:27;;;;;;;29.27;14.98;;;10.20;99.90;;;;;;5055036;28;20021;-64
2023/03/21 09:18:54;;;;;;;31.13;14.35;;;10.40;99.90;;;;;;5054969;28;20032;-64
2023/03/21 09:21:21;;;;;;;29.75;13.88;;;10.30;99.90;;;;;;5054878;28;20021;-64
2023/03/21 09:23:51;;;;;;;39.38;14.77;;;10.40;99.90;;;;;;5053738;28;20540;-64
2023/03/21 09:26:18;;;;;;;30.52;13.70;;;10.40;99.90;;;;;;5055066;28;20029;-64
2023/03/21 09:28:45;;;;;;;29.98;13.95;;;10.60;99.90;;;;;;5053717;28;20029;-64
2023/03/21 09:31:11;;;;;;;30.15;13.88;;;10.70;99.90;;;;;;5053612;28;20490;-64
2023/03/21 09:33:39;;;;;;;27.67;13.40;;;10.70;99.90;;;;;;5055025;28;20025;-63
2023/03/21 09:36:10;;;;;;;29.50;15.00;;;10.70;99.90;;;;;;5054865;28;20053;-64
2023/03/21 09:38:39;;;;;;;30.30;13.70;;;10.90;99.90;;;;;;5054715;28;20437;-64
2023/03/21 09:44:12;;;;;;;35.45;13.82;;;10.80;99.90;;;;;;5111046;27;20434;-63
2023/03/21 09:46:52;;;;;;;28.77;13.57;;;11.00;99.90;;;;;;5110887;28;20035;-63
2023/03/21 09:49:21;;;;;;;30.30;14.75;;;11.10;99.90;;;;;;5111007;28;20020;-63
2023/03/21 09:51:51;;;;;;;30.83;14.95;;;11.10;99.90;;;;;;5110775;28;20481;-63
2023/03/21 09:54:36;;;;;;;29.83;14.43;;;11.10;99.90;;;;;;5110608;27;20393;-63
2023/03/21 09:57:13;;;;;;;29.67;13.63;;;11.00;99.90;;;;;;5111094;28;20020;-63
2023/03/21 09:59:40;;;;;;;33.97;14.82;;;10.90;99.90;;;;;;5110920;28;20024;-64
2023/03/21 10:02:37;;;;;;;24.80;13.43;;;11.00;99.90;;;;;;5109539;28;20031;-64
2023/03/21 10:05:17;;;;;;;28.88;12.93;;;11.10;99.90;;;;;;5111102;28;20572;-63
2023/03/21 10:08:06;;;;;;;28.67;12.73;;;11.10;99.90;;;;;;5109527;28;20031;-63
2023/03/21 10:10:36;;;;;;;30.20;13.27;;;11.20;99.90;;;;;;5110317;28;20081;-63
2023/03/21 10:13:06;;;;;;;28.85;13.27;;;11.10;99.90;;;;;;5109075;28;20027;-63
2023/03/21 10:15:31;;;;;;;23.42;12.93;;;11.10;99.90;;;;;;5110401;28;20059;-64
2023/03/21 10:18:05;;;;;;;27.15;13.73;;;11.10;99.90;;;;;;5110295;28;20405;-64
2023/03/21 10:20:31;;;;;;;;;;;11.10;99.90;;;;;;5110692;28;20023;-63
2023/03/21 10:23:00;;;;;;;28.10;14.00;;;11.10;99.90;;;;;;5109044;28;20246;-63
2023/03/21 10:25:32;;;;;;;25.52;13.30;;;11.20;99.90;;;;;;5110177;28;20016;-63
2023/03/21 10:27:59;;;;;;;27.90;14.50;;;11.10;99.90;;;;;;5110610;28;20020;-63
2023/03/21 10:30:46;;;;;;;26.77;14.43;;;11.10;99.90;;;;;;5110051;28;20265;-63
2023/03/21 10:33:16;;;;;;;29.52;15.40;;;11.20;99.90;;;;;;5110006;28;20397;-63
2023/03/21 10:35:47;;;;;;;24.52;14.55;;;11.20;99.90;;;;;;5108808;28;20440;-63
2023/03/21 10:38:17;;;;;;;22.75;13.13;;;11.20;99.90;;;;;;5108772;28;20116;-63
2023/03/21 10:40:42;;;;;;;27.02;12.68;;;11.10;99.90;;;;;;5110051;28;20045;-63
2023/03/21 10:46:08;;;;;;;25.65;13.45;;;11.00;99.90;;;;;;5090713;27;20148;-63
2023/03/21 10:48:36;;;;;;;30.48;14.65;;;11.00;99.90;;;;;;5090878;28;20131;-64
2023/03/21 10:51:05;;;;;;;27.38;12.82;;;11.00;99.90;;;;;;5090754;28;20032;-63
2023/03/21 10:53:37;;;;;;;24.55;12.30;;;10.90;99.90;;;;;;5090803;28;20028;-63
2023/03/21 10:56:08;;;;;;;24.08;12.68;;;10.80;99.90;;;;;;5090797;28;20063;-62
2023/03/21 10:58:38;;;;;;;20.45;12.43;;;10.90;99.90;;;;;;5090409;28;20033;-63
2023/03/21 11:01:08;;;;;;;27.48;13.90;;;10.90;99.90;;;;;;5089489;28;20107;-62
2023/03/21 11:03:37;;;;;;;29.10;12.93;;;11.00;99.90;;;;;;5090455;28;20078;-64
2023/03/21 11:06:09;;;;;;;25.35;11.48;;;11.00;99.90;;;;;;5106103;28;20024;-63
2023/03/21 11:08:40;;;;;;;21.75;10.38;;;11.00;99.90;;;;;;5090276;28;20081;-63
2023/03/21 11:11:11;;;;;;;21.75;10.77;;;11.00;99.90;;;;;;5090245;28;20389;-63
2023/03/21 11:13:40;;;;;;;25.15;11.45;;;11.00;99.90;;;;;;5090281;28;20168;-63
2023/03/21 11:16:09;;;;;;;23.10;11.20;;;11.10;99.90;;;;;;5090139;28;20474;-63
2023/03/21 11:18:48;;;;;;;19.02;9.80;;;11.20;99.90;;;;;;5090138;28;20021;-63
2023/03/21 11:21:14;;;;;;;20.80;9.27;;;11.20;99.90;;;;;;5090236;28;20028;-64
2023/03/21 11:23:46;;;;;;;23.98;10.18;;;11.30;99.90;;;;;;5089935;28;20417;-63
2023/03/21 11:26:22;;;;;;;21.88;10.00;;;11.30;99.90;;;;;;5090074;28;20021;-63
2023/03/21 11:28:50;;;;;;;17.88;10.00;;;11.30;99.90;;;;;;5090126;28;20020;-63
2023/03/21 11:31:16;;;;;;;18.42;10.40;;;11.40;99.90;;;;;;5105371;28;20025;-63
2023/03/21 11:33:50;;;;;;;20.88;11.43;;;11.50;99.90;;;;;;5089784;28;20482;-63
2023/03/21 11:39:01;;;;;;;16.17;8.98;;;11.50;99.90;;;;;;5111087;27;20111;-62
2023/03/21 11:41:30;;;;;;;14.95;8.75;;;11.60;99.90;;;;;;5093354;28;20040;-63
2023/03/21 11:43:57;;;;;;;17.40;8.60;;;11.60;99.90;;;;;;5110866;28;20439;-63
2023/03/21 11:46:25;;;;;;;17.92;8.32;;;11.70;99.90;;;;;;5092765;28;20396;-63
2023/03/21 11:48:51;;;;;;;19.08;9.13;;;11.70;99.90;;;;;;5093145;28;20024;-63
2023/03/21 11:51:43;;;;;;;16.88;8.50;;;11.70;99.90;;;;;;5110734;28;20103;-63
2023/03/21 11:54:20;;;;;;;19.60;7.75;;;11.60;99.90;;;;;;5110728;28;20077;-63
2023/03/21 11:56:50;;;;;;;17.02;7.68;;;11.50;99.90;;;;;;5093329;28;20024;-63
2023/03/21 11:59:49;;;;;;;15.10;7.45;;;11.40;99.90;;;;;;5076439;28;20098;-63
2023/03/21 12:02:47;;;;;;;14.52;8.05;;;11.50;99.90;;;;;;5110657;28;20031;-63
2023/03/21 12:05:34;;;;;;;15.15;7.13;;;11.40;99.90;;;;;;5110315;28;20024;-64
2023/03/21 12:08:27;;;;;;;17.10;7.97;;;11.40;99.90;;;;;;5092415;28;20496;-63
2023/03/21 12:10:57;;;;;;;;;;;11.40;99.90;;;;;;5110825;28;20397;-63
2023/03/21 12:13:51;;;;;;;17.38;7.55;;;11.50;99.90;;;;;;5110411;28;19974;-64
2023/03/21 12:16:47;;;;;;;19.95;7.57;;;11.60;99.90;;;;;;5110485;28;20024;-63
2023/03/21 12:19:40;;;;;;;18.02;8.10;;;11.70;99.90;;;;;;5110185;28;20032;-63
2023/03/21 12:22:20;;;;;;;14.70;7.43;;;11.90;99.90;;;;;;5110094;28;20065;-64
2023/03/21 12:24:54;;;;;;;17.45;7.45;;;12.10;99.90;;;;;;5110149;28;20344;-63
2023/03/21 12:27:46;;;;;;;17.30;7.45;;;12.30;99.90;;;;;;5110351;28;20417;-63
2023/03/21 12:30:41;;;;;;;13.43;7.75;;;12.40;92.50;;;;;;5110050;28;20031;-63
2023/03/21 12:33:39;;;;;;;18.75;8.23;;;12.70;94.90;;;;;;5109935;28;20103;-63
2023/03/21 12:36:33;;;;;;;12.95;6.45;;;12.70;92.50;;;;;;5110110;28;20492;-64
2023/03/21 12:39:25;;;;;;;15.32;6.57;;;12.70;81.50;;;;;;5109724;28;20054;-63
2023/03/21 12:44:40;;;;;;;16.13;6.70;;;12.70;77.10;;;;;;5152207;27;20394;-65
2023/03/21 12:47:13;;;;;;;11.25;6.28;;;12.70;53.60;;;;;;5131505;28;20530;-62
2023/03/21 12:49:47;;;;;;;13.80;7.07;;;12.70;55.60;;;;;;5131566;28;20503;-62
2023/03/21 12:55:24;;;;;;;12.15;6.25;;;12.80;54.20;;;;;;5111201;27;20847;-63
2023/03/21 12:58:05;;;;;;;10.88;5.88;;;12.80;41.10;;;;;;5110917;28;20031;-63
2023/03/21 13:00:53;;;;;;;8.15;5.50;;;13.10;47.40;;;;;;5111125;28;20481;-63
2023/03/21 13:03:29;;;;;;;12.43;5.65;;;13.20;45.10;;;;;;5110880;28;20076;-63
2023/03/21 13:06:05;;;;;;;11.52;5.47;;;13.20;27.50;;;;;;5109712;28;20103;-63
2023/03/21 13:08:55;;;;;;;9.80;4.40;;;13.10;23.10;;;;;;5093867;28;20432;-63
2023/03/21 13:11:26;;;;;;;12.32;5.15;;;12.90;5.40;;;;;;5110690;28;20103;-63